Time;durP1;ratioP1;P1;durP2;ratioP2;P2;SDS_P1;SDS_P2;PMS_P1;PMS_P2;Temp;Humidity;BMP_temperature;BMP_pressure;BME280_temperature;BME280_humidity;BME280_pressure;Samples;Min_cycle;Max_cycle;Signal;HPM_P1;HPM_P2
2024/02/08 00:01:41;;;;;;;;;;;8.00;84.60;;;;;;5009608;28;87920;-60
2024/02/08 00:04:07;;;;;;;;;;;8.00;84.50;;;;;;5018530;28;87697;-60
2024/02/08 00:06:32;;;;;;;;;;;8.00;84.60;;;;;;5020170;28;86862;-59
2024/02/08 00:09:01;;;;;;;;;;;8.00;84.60;;;;;;5016430;28;86238;-60
2024/02/08 00:11:27;;;;;;;;;;;8.00;84.50;;;;;;5016232;28;86894;-60
2024/02/08 00:13:53;;;;;;;;;;;8.00;84.60;;;;;;5018706;28;86992;-60
2024/02/08 00:16:18;;;;;;;;;;;8.00;85.00;;;;;;5014829;28;89371;-59
2024/02/08 00:18:44;;;;;;;;;;;8.00;84.60;;;;;;5019127;28;87001;-60
2024/02/08 00:21:10;;;;;;;;;;;8.00;84.50;;;;;;5015877;28;87140;-60
2024/02/08 00:23:36;;;;;;;;;;;7.90;84.60;;;;;;5018934;28;87419;-61
2024/02/08 00:26:02;;;;;;;;;;;7.90;84.40;;;;;;5019013;28;87100;-60
2024/02/08 00:28:28;;;;;;;;;;;8.00;84.60;;;;;;5019135;28;87530;-60
2024/02/08 00:30:54;;;;;;;;;;;7.90;84.40;;;;;;5015803;28;86854;-60
2024/02/08 00:33:20;;;;;;;;;;;7.90;84.50;;;;;;5018813;28;87946;-60
2024/02/08 00:35:46;;;;;;;;;;;7.90;84.50;;;;;;5012985;28;88635;-60
2024/02/08 00:38:11;;;;;;;;;;;7.90;85.10;;;;;;5018837;28;87070;-60
2024/02/08 00:40:37;;;;;;;;;;;7.90;84.50;;;;;;5014665;28;88219;-60
2024/02/08 00:43:06;;;;;;;;;;;7.90;84.50;;;;;;5019079;28;87418;-61
2024/02/08 00:45:32;;;;;;;;;;;7.90;84.40;;;;;;5019173;28;86917;-60
2024/02/08 00:47:59;;;;;;;;;;;7.90;84.50;;;;;;5020822;28;86836;-59
2024/02/08 00:50:25;;;;;;;;;;;7.90;84.50;;;;;;5015694;28;86984;-61
2024/02/08 00:52:52;;;;;;;;;;;7.90;84.50;;;;;;5015444;28;87040;-60
2024/02/08 00:55:18;;;;;;;;;;;7.90;84.50;;;;;;5018723;28;87506;-60
2024/02/08 00:57:44;;;;;;;;;;;7.90;84.60;;;;;;5015517;28;86325;-60
2024/02/08 01:00:10;;;;;;;;;;;7.90;84.50;;;;;;5013847;28;86948;-60
2024/02/08 01:02:35;;;;;;;;;;;7.90;84.60;;;;;;5013819;28;89131;-59
2024/02/08 01:05:01;;;;;;;;;;;7.90;84.60;;;;;;5015634;28;88037;-60
2024/02/08 01:07:31;;;;;;;;;;;7.80;84.50;;;;;;5019238;28;87671;-60
2024/02/08 01:09:57;;;;;;;;;;;7.80;84.40;;;;;;5019417;28;87420;-61
2024/02/08 01:12:23;;;;;;;;;;;7.80;84.40;;;;;;5019053;28;86868;-59
2024/02/08 01:14:49;;;;;;;;;;;7.80;84.40;;;;;;5016125;28;88558;-60
2024/02/08 01:17:15;;;;;;;;;;;7.80;84.50;;;;;;5016797;28;87018;-60
2024/02/08 01:19:41;;;;;;;;;;;7.80;84.50;;;;;;5018869;28;87957;-60
2024/02/08 01:22:07;;;;;;;;;;;7.80;84.40;;;;;;5017173;28;86995;-58
2024/02/08 01:24:32;;;;;;;;;;;7.80;84.50;;;;;;5016717;28;86983;-60
2024/02/08 01:26:58;;;;;;;;;;;7.80;84.50;;;;;;5016854;28;87357;-61
2024/02/08 01:29:25;;;;;;;;;;;7.70;84.40;;;;;;5015420;28;87807;-60
2024/02/08 01:31:53;;;;;;;;;;;7.70;84.30;;;;;;5019305;28;87046;-61
2024/02/08 01:34:19;;;;;;;;;;;7.80;84.50;;;;;;5011567;28;87583;-60
2024/02/08 01:36:46;;;;;;;;;;;7.70;84.30;;;;;;5015754;28;86827;-60
2024/02/08 01:39:13;;;;;;;;;;;7.70;84.30;;;;;;5015273;28;88114;-60
2024/02/08 01:41:43;;;;;;;;;;;7.70;84.50;;;;;;5017742;28;88411;-59
2024/02/08 01:44:09;;;;;;;;;;;7.70;84.40;;;;;;5014084;28;87099;-60
2024/02/08 01:46:41;;;;;;;;;;;7.70;84.30;;;;;;5013456;28;87814;-60
2024/02/08 01:49:09;;;;;;;;;;;7.70;84.30;;;;;;5014467;28;86801;-60
2024/02/08 01:51:36;;;;;;;;;;;7.70;84.30;;;;;;5018356;28;86933;-60
2024/02/08 01:54:02;;;;;;;;;;;7.70;84.30;;;;;;5019445;28;87681;-60
2024/02/08 01:56:30;;;;;;;;;;;7.70;84.20;;;;;;5015168;28;86966;-60
2024/02/08 01:58:59;;;;;;;;;;;7.70;84.30;;;;;;5017130;28;87240;-60
2024/02/08 02:01:25;;;;;;;;;;;7.70;84.30;;;;;;5015699;28;87594;-61
2024/02/08 02:03:51;;;;;;;;;;;7.60;84.20;;;;;;5016499;28;86945;-60
2024/02/08 02:06:16;;;;;;;;;;;7.70;84.30;;;;;;5015961;28;86889;-60
2024/02/08 02:08:52;;;;;;;;;;;7.60;84.20;;;;;;5016341;28;87554;-60
2024/02/08 02:11:20;;;;;;;;;;;7.70;84.30;;;;;;5017509;28;86198;-60
2024/02/08 02:13:47;;;;;;;;;;;7.60;84.20;;;;;;5022056;28;86919;-60
2024/02/08 02:16:14;;;;;;;;;;;7.60;84.30;;;;;;5014237;28;87041;-60
2024/02/08 02:18:39;;;;;;;;;;;7.60;84.10;;;;;;5017226;28;87850;-60
2024/02/08 02:21:05;;;;;;;;;;;7.60;84.80;;;;;;5020853;28;87502;-61
2024/02/08 02:23:31;;;;;;;;;;;7.60;84.10;;;;;;5014060;28;87088;-60
2024/02/08 02:25:58;;;;;;;;;;;7.60;84.20;;;;;;5017459;28;87865;-60
2024/02/08 02:28:24;;;;;;;;;;;7.60;84.10;;;;;;5017125;28;86768;-61
2024/02/08 02:30:50;;;;;;;;;;;7.60;84.10;;;;;;5021188;28;87026;-60
2024/02/08 02:33:16;;;;;;;;;;;7.60;84.10;;;;;;5017054;28;87797;-60
2024/02/08 02:35:48;;;;;;;;;;;7.50;84.00;;;;;;5020139;28;86802;-59
2024/02/08 02:38:17;;;;;;;;;;;7.50;84.10;;;;;;5020041;28;87312;-60
2024/02/08 02:40:46;;;;;;;;;;;7.50;84.00;;;;;;5014358;28;88570;-60
2024/02/08 02:43:13;;;;;;;;;;;7.50;84.00;;;;;;5018211;28;87909;-58
2024/02/08 02:45:42;;;;;;;;;;;7.50;84.00;;;;;;5015012;28;88861;-60
2024/02/08 02:48:07;;;;;;;;;;;7.50;84.00;;;;;;5014582;28;88338;-60
2024/02/08 02:50:33;;;;;;;;;;;7.50;84.00;;;;;;5018451;28;87061;-60
2024/02/08 02:52:59;;;;;;;;;;;7.50;84.10;;;;;;5015858;28;86909;-60
2024/02/08 02:55:25;;;;;;;;;;;7.50;84.10;;;;;;5018059;28;87529;-60
2024/02/08 02:57:51;;;;;;;;;;;7.50;84.00;;;;;;5017038;28;86970;-61
2024/02/08 03:00:24;;;;;;;;;;;7.50;84.10;;;;;;5018561;28;86897;-60
2024/02/08 03:02:50;;;;;;;;;;;7.50;84.00;;;;;;5020052;28;86942;-60
2024/02/08 03:05:17;;;;;;;;;;;7.50;84.00;;;;;;5017557;28;86840;-60
2024/02/08 03:07:45;;;;;;;;;;;7.50;84.00;;;;;;5019480;28;89612;-58
2024/02/08 03:10:12;;;;;;;;;;;7.40;83.90;;;;;;5016926;28;86985;-60
2024/02/08 03:12:38;;;;;;;;;;;7.40;84.10;;;;;;5016712;28;87803;-60
2024/02/08 03:15:08;;;;;;;;;;;7.40;84.10;;;;;;5016519;28;87555;-60
2024/02/08 03:17:38;;;;;;;;;;;7.40;83.90;;;;;;5017099;28;87006;-61
2024/02/08 03:20:08;;;;;;;;;;;7.40;84.00;;;;;;5022131;28;86903;-61
2024/02/08 03:22:34;;;;;;;;;;;7.40;84.00;;;;;;5017815;28;87797;-60
2024/02/08 03:25:04;;;;;;;;;;;7.40;84.00;;;;;;5018905;28;86716;-61
2024/02/08 03:27:33;;;;;;;;;;;7.40;84.00;;;;;;5018368;28;88599;-60
2024/02/08 03:30:04;;;;;;;;;;;7.30;84.00;;;;;;5020344;28;87022;-60
2024/02/08 03:32:30;;;;;;;;;;;7.40;84.00;;;;;;5015814;28;87898;-60
2024/02/08 03:34:56;;;;;;;;;;;7.40;84.00;;;;;;5019479;28;87577;-60
2024/02/08 03:37:22;;;;;;;;;;;7.30;83.90;;;;;;5016663;28;87050;-60
2024/02/08 03:39:48;;;;;;;;;;;7.30;84.00;;;;;;5019123;28;87026;-60
2024/02/08 03:42:16;;;;;;;;;;;7.30;83.90;;;;;;5015291;28;87499;-60
2024/02/08 03:44:42;;;;;;;;;;;7.30;83.90;;;;;;5016331;28;87977;-61
2024/02/08 03:47:08;;;;;;;;;;;7.30;83.80;;;;;;5015828;28;86861;-59
2024/02/08 03:49:35;;;;;;;;;;;7.30;84.00;;;;;;5020691;28;86186;-61
2024/02/08 03:52:01;;;;;;;;;;;7.30;83.90;;;;;;5016195;28;87280;-60
2024/02/08 03:54:30;;;;;;;;;;;7.30;83.90;;;;;;5019211;28;88555;-61
2024/02/08 03:56:59;;;;;;;;;;;7.30;83.80;;;;;;5013264;28;87898;-60
2024/02/08 03:59:27;;;;;;;;;;;7.30;83.90;;;;;;5013056;28;86924;-59
2024/02/08 04:02:03;;;;;;;;;;;7.20;83.90;;;;;;5008846;28;87457;-60
2024/02/08 04:04:47;;;;;;;;;;;7.20;83.90;;;;;;5018421;28;86875;-60
2024/02/08 04:07:20;;;;;;;;;;;7.30;83.90;;;;;;5014627;28;88654;-61
2024/02/08 04:53:30;;;;;;;;;;;7.20;83.90;;;;;;5017933;28;86865;-60
2024/02/08 04:53:43;;;;;;;;;;;7.00;83.90;;;;;;5014747;28;86914;-58
2024/02/08 04:56:10;;;;;;;;;;;7.00;84.00;;;;;;5014989;28;88013;-60
2024/02/08 04:58:40;;;;;;;;;;;7.00;83.90;;;;;;5014733;28;87425;-60
2024/02/08 05:01:08;;;;;;;;;;;7.00;83.90;;;;;;5015885;28;87023;-60
2024/02/08 05:03:37;;;;;;;;;;;7.00;84.00;;;;;;5014091;28;88036;-60
2024/02/08 05:06:14;;;;;;;;;;;7.00;83.90;;;;;;5016221;28;88716;-61
2024/02/08 05:08:44;;;;;;;;;;;7.00;83.90;;;;;;5015980;28;86246;-60
2024/02/08 05:11:10;;;;;;;;;;;7.00;83.90;;;;;;5018542;28;86865;-60
2024/02/08 05:13:42;;;;;;;;;;;7.00;83.90;;;;;;5017429;28;88557;-61
2024/02/08 05:16:10;;;;;;;;;;;6.90;84.00;;;;;;5014968;28;87988;-60
2024/02/08 05:18:36;;;;;;;;;;;6.90;84.00;;;;;;5013393;28;88514;-61
2024/02/08 05:21:05;;;;;;;;;;;6.90;84.00;;;;;;5014962;28;88275;-61
2024/02/08 05:23:33;;;;;;;;;;;6.90;83.90;;;;;;5012075;28;87059;-61
2024/02/08 05:25:59;;;;;;;;;;;7.00;84.00;;;;;;5012694;28;88557;-61
2024/02/08 05:28:26;;;;;;;;;;;6.90;83.90;;;;;;5011861;28;86978;-60
2024/02/08 05:30:52;;;;;;;;;;;6.90;84.00;;;;;;5016737;28;87866;-60
2024/02/08 05:33:18;;;;;;;;;;;6.90;84.00;;;;;;5016374;28;87877;-60
2024/02/08 05:35:44;;;;;;;;;;;6.90;84.00;;;;;;5015676;28;87347;-60
2024/02/08 05:38:10;;;;;;;;;;;6.90;84.00;;;;;;5013691;28;87328;-60
2024/02/08 05:40:41;;;;;;;;;;;6.90;84.00;;;;;;5019063;28;88743;-61
2024/02/08 05:43:07;;;;;;;;;;;6.90;84.00;;;;;;5011616;28;88987;-61
2024/02/08 05:45:33;;;;;;;;;;;6.80;84.00;;;;;;5015478;28;88623;-61
2024/02/08 05:48:05;;;;;;;;;;;6.80;84.00;;;;;;5014784;28;87195;-60
2024/02/08 05:50:32;;;;;;;;;;;6.80;84.00;;;;;;5016759;28;86946;-61
2024/02/08 05:52:57;;;;;;;;;;;6.80;83.90;;;;;;5021635;28;87564;-60
2024/02/08 05:55:24;;;;;;;;;;;6.80;84.00;;;;;;5018165;28;87051;-60
2024/02/08 05:57:52;;;;;;;;;;;6.80;84.00;;;;;;5020942;28;88380;-61
2024/02/08 06:00:36;;;;;;;;;;;6.80;84.00;;;;;;5017968;28;86968;-61
2024/02/08 06:03:03;;;;;;;;;;;6.80;84.00;;;;;;5019065;28;86977;-61
2024/02/08 06:05:28;;;;;;;;;;;6.80;84.00;;;;;;5019321;28;89615;-61
2024/02/08 06:07:57;;;;;;;;;;;6.80;84.00;;;;;;5021590;27;86888;-60
2024/02/08 06:10:31;;;;;;;;;;;6.80;84.00;;;;;;5017034;28;87083;-60
2024/02/08 06:12:59;;;;;;;;;;;6.80;83.90;;;;;;5017801;28;87640;-60
2024/02/08 06:15:32;;;;;;;;;;;6.70;83.90;;;;;;5019562;28;87076;-59
2024/02/08 06:18:03;;;;;;;;;;;6.70;83.90;;;;;;5021948;28;87959;-58
2024/02/08 06:20:40;;;;;;;;;;;6.70;83.90;;;;;;5018805;28;86926;-60
2024/02/08 06:23:23;;;;;;;;;;;6.70;83.90;;;;;;5017857;28;88074;-61
2024/02/08 06:28:52;;;;;;;;;;;6.80;83.90;;;;;;5019220;28;86985;-60
2024/02/08 06:31:19;;;;;;;;;;;6.70;84.00;;;;;;5013328;28;87959;-60
2024/02/08 06:36:34;;;;;;;;;;;6.70;83.90;;;;;;5019766;28;86734;-60
2024/02/08 06:39:20;;;;;;;;;;;6.70;83.90;;;;;;5018017;28;87990;-60
2024/02/08 07:39:46;;;;;;;;;;;6.70;83.90;;;;;;5016359;28;87141;-60
2024/02/08 07:41:54;;;;;;;;;;;6.70;84.00;;;;;;4949796;28;1693494;-61
2024/02/08 07:44:22;;;;;;;;;;;6.70;84.00;;;;;;5017551;28;86237;-60
2024/02/08 07:46:54;;;;;;;;;;;6.70;84.00;;;;;;5012757;28;88360;-60
2024/02/08 07:49:23;;;;;;;;;;;6.60;84.00;;;;;;5015491;28;87001;-60
2024/02/08 07:51:58;;;;;;;;;;;6.60;84.00;;;;;;5012503;28;88746;-60
2024/02/08 07:54:24;;;;;;;;;;;6.60;84.10;;;;;;5018518;28;87679;-61
2024/02/08 07:56:53;;;;;;;;;;;6.60;84.00;;;;;;5019812;28;86855;-61
2024/02/08 07:59:26;;;;;;;;;;;6.60;84.00;;;;;;5015617;28;88588;-60
2024/02/08 08:01:53;;;;;;;;;;;6.70;84.10;;;;;;5019848;28;87025;-60
2024/02/08 08:07:07;;;;;;;;;;;6.60;84.00;;;;;;5015714;28;87124;-60
2024/02/08 08:09:38;;;;;;;;;;;6.60;84.00;;;;;;5017770;28;86293;-59
2024/02/08 08:12:04;;;;;;;;;;;6.70;84.00;;;;;;5009751;28;86907;-61
2024/02/08 08:17:08;;;;;;;;;;;6.60;84.00;;;;;;5020060;28;88018;-60
2024/02/08 08:19:44;;;;;;;;;;;6.70;84.00;;;;;;5016145;28;88478;-60
2024/02/08 08:27:47;;;;;;;;;;;6.60;84.00;;;;;;5014880;28;87314;-59
2024/02/08 08:30:27;;;;;;;;;;;6.60;84.00;;;;;;5014740;28;86801;-61
2024/02/08 08:35:37;;;;;;;;;;;6.70;84.10;;;;;;5011166;28;86630;-60
2024/02/08 08:41:00;;;;;;;;;;;6.60;84.10;;;;;;5013769;28;87372;-61
2024/02/08 08:43:26;;;;;;;;;;;6.60;84.10;;;;;;5015358;28;87947;-61
2024/02/08 08:45:53;;;;;;;;;;;6.70;84.10;;;;;;5019011;28;86937;-60
2024/02/08 08:48:19;;;;;;;;;;;6.70;84.10;;;;;;5018831;28;88472;-60
2024/02/08 08:50:50;;;;;;;;;;;6.70;84.20;;;;;;5014344;28;86969;-60
2024/02/08 08:53:19;;;;;;;;;;;6.60;84.10;;;;;;5013498;28;88080;-61
2024/02/08 08:55:49;;;;;;;;;;;6.70;84.20;;;;;;5014036;28;87421;-60
2024/02/08 08:58:15;;;;;;;;;;;6.70;84.20;;;;;;5016519;28;86982;-61
2024/02/08 09:00:46;;;;;;;;;;;6.70;84.10;;;;;;5020859;28;86500;-60
2024/02/08 09:03:25;;;;;;;;;;;6.70;84.20;;;;;;5019120;28;86883;-61
2024/02/08 09:05:57;;;;;;;;;;;6.70;84.20;;;;;;5014951;28;87958;-61
2024/02/08 09:08:34;;;;;;;;;;;6.70;84.10;;;;;;5014524;28;89490;-60
2024/02/08 09:11:03;;;;;;;;;;;6.70;84.10;;;;;;5017163;28;87073;-59
2024/02/08 09:13:29;;;;;;;;;;;6.70;84.10;;;;;;5017615;28;87818;-61
2024/02/08 09:16:29;;;;;;;;;;;6.70;84.10;;;;;;5010604;28;87198;-60
2024/02/08 09:21:32;;;;;;;;;;;6.70;84.00;;;;;;5011691;28;87540;-60
2024/02/08 09:24:03;;;;;;;;;;;6.70;84.00;;;;;;5018035;28;88598;-60
2024/02/08 09:26:48;;;;;;;;;;;6.70;84.00;;;;;;5013631;28;87984;-60
2024/02/08 09:29:25;;;;;;;;;;;6.70;84.00;;;;;;5014363;28;88967;-60
2024/02/08 09:31:58;;;;;;;;;;;6.70;83.90;;;;;;5014353;28;86843;-60
2024/02/08 09:34:37;;;;;;;;;;;6.70;83.90;;;;;;5011662;28;87979;-61
2024/02/08 09:37:06;;;;;;;;;;;6.70;83.80;;;;;;5011310;28;88534;-60
2024/02/08 09:39:58;;;;;;;;;;;6.70;83.80;;;;;;5009873;28;87859;-60
2024/02/08 09:42:26;;;;;;;;;;;6.70;83.70;;;;;;5011081;28;88230;-60
2024/02/08 09:45:04;;;;;;;;;;;6.70;83.70;;;;;;5014104;28;87753;-60
2024/02/08 09:47:35;;;;;;;;;;;6.70;83.80;;;;;;5018432;28;86907;-60
2024/02/08 09:50:01;;;;;;;;;;;6.70;83.70;;;;;;5013921;28;88470;-60
2024/02/08 09:52:30;;;;;;;;;;;6.70;83.80;;;;;;5012966;28;86298;-61
2024/02/08 09:55:08;;;;;;;;;;;6.70;83.90;;;;;;5014353;28;86889;-60
2024/02/08 09:57:46;;;;;;;;;;;6.80;83.90;;;;;;5016476;28;88603;-60
2024/02/08 10:00:34;;;;;;;;;;;6.80;83.80;;;;;;5016768;28;87968;-60
2024/02/08 10:03:05;;;;;;;;;;;6.80;84.10;;;;;;5016485;28;87549;-60
2024/02/08 10:08:28;;;;;;;;;;;6.80;84.20;;;;;;5018338;28;86952;-60
2024/02/08 10:11:11;;;;;;;;;;;6.80;84.10;;;;;;5020068;28;87977;-60
2024/02/08 10:16:42;;;;;;;;;;;6.80;84.60;;;;;;5014555;28;87080;-59
2024/02/08 10:19:44;;;;;;;;;;;6.80;84.30;;;;;;5015002;28;88029;-61
2024/02/08 10:22:17;;;;;;;;;;;6.90;84.40;;;;;;5014415;28;87519;-60
2024/02/08 10:26:19;;;;;;;;;;;6.90;84.80;;;;;;5016455;28;87952;-60
2024/02/08 10:27:35;;;;;;;;;;;6.90;84.70;;;;;;5012988;28;88293;-59
2024/02/08 10:30:06;;;;;;;;;;;6.90;84.90;;;;;;5017966;28;87530;-60
2024/02/08 10:32:32;;;;;;;;;;;6.90;84.80;;;;;;5016410;28;86882;-60
2024/02/08 10:35:26;;;;;;;;;;;6.90;84.90;;;;;;5017382;28;88341;-61
2024/02/08 10:38:07;;;;;;;;;;;6.90;85.00;;;;;;5017554;28;86890;-60
2024/02/08 10:40:34;;;;;;;;;;;6.90;85.10;;;;;;5020081;28;89030;-60
2024/02/08 10:43:02;;;;;;;;;;;7.00;85.20;;;;;;5017308;28;86852;-61
2024/02/08 10:45:43;;;;;;;;;;;7.00;85.10;;;;;;5015520;28;86531;-59
2024/02/08 10:48:13;;;;;;;;;;;7.00;85.20;;;;;;5014809;28;88522;-60
2024/02/08 10:50:41;;;;;;;;;;;7.00;85.30;;;;;;5018014;28;87085;-60
2024/02/08 10:53:16;;;;;;;;;;;7.00;85.50;;;;;;5019562;28;87935;-60
2024/02/08 10:55:56;;;;;;;;;;;7.00;85.50;;;;;;5019761;28;88629;-61
2024/02/08 10:58:51;;;;;;;;;;;7.00;85.70;;;;;;5018598;28;88406;-60
2024/02/08 11:01:32;;;;;;;;;;;7.00;85.60;;;;;;5017401;28;87210;-60
2024/02/08 11:04:00;;;;;;;;;;;7.10;85.70;;;;;;5017154;28;87241;-60
2024/02/08 11:06:28;;;;;;;;;;;7.10;85.70;;;;;;5019907;28;87772;-60
2024/02/08 11:09:14;;;;;;;;;;;7.10;86.00;;;;;;5016305;28;88789;-60
2024/02/08 11:11:44;;;;;;;;;;;7.10;86.10;;;;;;5019252;28;86197;-60
2024/02/08 11:14:12;;;;;;;;;;;7.10;86.10;;;;;;5014849;28;88328;-60
2024/02/08 11:16:41;;;;;;;;;;;7.10;86.10;;;;;;5019802;28;86730;-60
2024/02/08 11:19:14;;;;;;;;;;;7.20;86.10;;;;;;5018326;28;87956;-60
2024/02/08 11:21:43;;;;;;;;;;;7.20;86.10;;;;;;5017454;28;88412;-60
2024/02/08 11:24:27;;;;;;;;;;;7.20;86.20;;;;;;5019130;28;87289;-60
2024/02/08 11:26:57;;;;;;;;;;;7.20;86.20;;;;;;5016349;28;87963;-59
2024/02/08 11:29:27;;;;;;;;;;;7.20;86.30;;;;;;5015690;28;88528;-60
2024/02/08 11:31:55;;;;;;;;;;;7.20;86.20;;;;;;5017723;28;87056;-60
2024/02/08 11:34:24;;;;;;;;;;;7.20;86.20;;;;;;5017831;28;87761;-60
2024/02/08 11:36:53;;;;;;;;;;;7.30;86.40;;;;;;5015068;28;87807;-60
2024/02/08 11:39:30;;;;;;;;;;;7.30;86.40;;;;;;5018707;28;87012;-60
2024/02/08 11:42:05;;;;;;;;;;;7.30;86.30;;;;;;5020256;28;88038;-60
2024/02/08 11:44:37;;;;;;;;;;;7.30;86.30;;;;;;5013394;28;87837;-59
2024/02/08 11:47:17;;;;;;;;;;;7.30;86.30;;;;;;5018808;28;88977;-60
2024/02/08 11:50:08;;;;;;;;;;;7.30;86.30;;;;;;5016862;28;88574;-60
2024/02/08 11:52:36;;;;;;;;;;;7.40;86.40;;;;;;5018554;28;87267;-60
2024/02/08 11:55:06;;;;;;;;;;;7.40;86.40;;;;;;5015907;28;87861;-60
2024/02/08 11:57:36;;;;;;;;;;;7.40;86.40;;;;;;5012702;28;88570;-60
2024/02/08 12:00:15;;;;;;;;;;;7.40;86.50;;;;;;5015716;28;87004;-60
2024/02/08 12:02:57;;;;;;;;;;;7.40;86.40;;;;;;5016509;28;87930;-60
2024/02/08 12:05:26;;;;;;;;;;;7.40;86.40;;;;;;5020341;28;88594;-60
2024/02/08 12:07:52;;;;;;;;;;;7.50;86.50;;;;;;5013741;28;87006;-59
2024/02/08 12:10:21;;;;;;;;;;;7.50;86.50;;;;;;5013768;28;89498;-60
2024/02/08 12:12:52;;;;;;;;;;;7.50;86.50;;;;;;5016722;28;87002;-60
2024/02/08 12:15:19;;;;;;;;;;;7.50;86.50;;;;;;5015813;28;87901;-60
2024/02/08 12:17:48;;;;;;;;;;;7.50;86.00;;;;;;5018444;28;87655;-60
2024/02/08 12:20:17;;;;;;;;;;;7.50;85.90;;;;;;5017271;28;87218;-60
2024/02/08 12:22:43;;;;;;;;;;;7.60;86.00;;;;;;5019697;28;87633;-60
2024/02/08 12:25:15;;;;;;;;;;;7.60;86.40;;;;;;5015015;28;88615;-60
2024/02/08 12:27:48;;;;;;;;;;;7.60;86.50;;;;;;5018787;28;86167;-60
2024/02/08 12:30:21;;;;;;;;;;;7.60;86.60;;;;;;5015778;28;88691;-60
2024/02/08 12:32:50;;;;;;;;;;;7.60;86.60;;;;;;5015463;28;86953;-60
2024/02/08 12:35:19;;;;;;;;;;;7.60;86.60;;;;;;5014481;28;88480;-60
2024/02/08 12:37:46;;;;;;;;;;;7.70;86.60;;;;;;5018624;28;88103;-60
2024/02/08 12:40:15;;;;;;;;;;;7.70;86.50;;;;;;5016452;28;87900;-60
2024/02/08 12:42:41;;;;;;;;;;;7.70;86.60;;;;;;5015381;28;86951;-59
2024/02/08 12:45:15;;;;;;;;;;;7.70;86.70;;;;;;5016181;28;87570;-60
2024/02/08 12:47:41;;;;;;;;;;;7.70;86.70;;;;;;5016994;28;86677;-60
2024/02/08 12:50:10;;;;;;;;;;;7.80;86.60;;;;;;5015678;28;87850;-60
2024/02/08 12:52:36;;;;;;;;;;;7.80;86.50;;;;;;5012270;28;86240;-60
2024/02/08 12:55:02;;;;;;;;;;;7.80;86.60;;;;;;5014101;28;86914;-60
2024/02/08 12:57:28;;;;;;;;;;;7.80;86.60;;;;;;5009863;28;88530;-60
2024/02/08 13:00:03;;;;;;;;;;;7.80;86.60;;;;;;5013587;28;88932;-60
2024/02/08 13:02:33;;;;;;;;;;;7.90;86.70;;;;;;5013102;28;87579;-58
2024/02/08 13:05:01;;;;;;;;;;;7.90;86.60;;;;;;5017882;28;88652;-60
2024/02/08 13:07:26;;;;;;;;;;;7.90;86.40;;;;;;5015553;28;87019;-60
2024/02/08 13:10:00;;;;;;;;;;;7.90;86.70;;;;;;5020401;28;87174;-59
2024/02/08 13:12:27;;;;;;;;;;;7.90;86.70;;;;;;5016907;28;86947;-60
2024/02/08 13:14:53;;;;;;;;;;;8.00;86.70;;;;;;5016393;28;87968;-59
2024/02/08 13:17:19;;;;;;;;;;;8.00;86.90;;;;;;5017373;28;86183;-60
2024/02/08 13:19:55;;;;;;;;;;;8.00;86.80;;;;;;5009114;28;87230;-60
2024/02/08 13:22:24;;;;;;;;;;;8.00;86.90;;;;;;5014732;28;87079;-60
2024/02/08 13:24:52;;;;;;;;;;;8.00;86.80;;;;;;5016943;28;89543;-60
2024/02/08 13:27:24;;;;;;;;;;;8.00;86.40;;;;;;5014132;28;87101;-60
2024/02/08 13:29:53;;;;;;;;;;;8.10;86.40;;;;;;5013299;28;87198;-60
2024/02/08 13:32:19;;;;;;;;;;;8.10;86.20;;;;;;5016379;28;87435;-60
2024/02/08 13:34:44;;;;;;;;;;;8.10;86.60;;;;;;5016175;28;86845;-60
2024/02/08 13:37:15;;;;;;;;;;;8.10;86.80;;;;;;5010164;28;87547;-60
2024/02/08 13:39:44;;;;;;;;;;;8.10;86.90;;;;;;5012107;28;87160;-60
2024/02/08 13:42:10;;;;;;;;;;;8.20;86.80;;;;;;5014501;28;86466;-60
2024/02/08 13:44:36;;;;;;;;;;;8.20;87.00;;;;;;5014094;28;87450;-60
2024/02/08 13:47:03;;;;;;;;;;;8.20;86.80;;;;;;5014587;28;86992;-60
2024/02/08 13:49:32;;;;;;;;;;;8.20;86.90;;;;;;5016742;28;87954;-60
2024/02/08 13:51:58;;;;;;;;;;;8.20;86.80;;;;;;5014214;28;88343;-60
2024/02/08 13:54:24;;;;;;;;;;;8.30;86.80;;;;;;5019436;28;87045;-60
2024/02/08 13:56:52;;;;;;;;;;;8.30;86.90;;;;;;5013834;28;87736;-60
2024/02/08 13:59:18;;;;;;;;;;;8.30;86.90;;;;;;5014291;28;87008;-60
2024/02/08 14:01:44;;;;;;;;;;;8.30;86.60;;;;;;5018135;28;86916;-60
2024/02/08 14:04:10;;;;;;;;;;;8.40;86.70;;;;;;5012724;28;88573;-60
2024/02/08 14:06:41;;;;;;;;;;;8.40;86.70;;;;;;5010774;28;86451;-60
2024/02/08 14:09:24;;;;;;;;;;;8.40;86.60;;;;;;5017225;28;86965;-60
2024/02/08 14:11:55;;;;;;;;;;;8.40;86.50;;;;;;5017930;28;87933;-60
2024/02/08 14:14:29;;;;;;;;;;;8.40;86.40;;;;;;5016889;28;87952;-59
2024/02/08 14:16:56;;;;;;;;;;;8.50;86.30;;;;;;5022549;28;89172;-60
2024/02/08 14:19:33;;;;;;;;;;;8.50;86.90;;;;;;5018525;28;87002;-60
2024/02/08 14:22:05;;;;;;;;;;;8.50;86.80;;;;;;5019096;28;87002;-60
2024/02/08 14:24:41;;;;;;;;;;;8.50;86.60;;;;;;5017854;28;87699;-60
2024/02/08 14:27:06;;;;;;;;;;;8.50;86.80;;;;;;5015716;28;86942;-60
2024/02/08 14:29:35;;;;;;;;;;;8.60;86.60;;;;;;5017337;28;86944;-60
2024/02/08 14:32:04;;;;;;;;;;;8.60;86.30;;;;;;5020122;28;86165;-60
2024/02/08 14:34:36;;;;;;;;;;;8.60;86.40;;;;;;5020766;28;86940;-59
2024/02/08 14:37:05;;;;;;;;;;;8.70;87.40;;;;;;5013712;28;87845;-59
2024/02/08 14:39:34;;;;;;;;;;;8.70;86.60;;;;;;5016073;28;88428;-60
2024/02/08 14:42:00;;;;;;;;;;;8.70;86.80;;;;;;5020090;28;88869;-60
2024/02/08 14:44:31;;;;;;;;;;;8.70;87.00;;;;;;5013724;28;88657;-60
2024/02/08 14:47:00;;;;;;;;;;;8.70;87.10;;;;;;5016572;28;86901;-60
2024/02/08 14:49:28;;;;;;;;;;;8.70;87.10;;;;;;5016992;28;87926;-59
2024/02/08 14:52:01;;;;;;;;;;;8.70;87.10;;;;;;5013343;28;88753;-59
2024/02/08 14:54:27;;;;;;;;;;;8.70;87.20;;;;;;5012236;28;87703;-60
2024/02/08 14:57:04;;;;;;;;;;;8.70;87.40;;;;;;5017815;28;86797;-60
2024/02/08 14:59:53;;;;;;;;;;;8.70;87.40;;;;;;5016938;28;87663;-60
2024/02/08 15:02:20;;;;;;;;;;;8.70;87.70;;;;;;5026706;28;87068;-60
2024/02/08 15:04:52;;;;;;;;;;;8.70;87.60;;;;;;5016940;28;89486;-60
2024/02/08 15:10:10;;;;;;;;;;;8.70;87.70;;;;;;5019479;28;88000;-60
2024/02/08 15:12:41;;;;;;;;;;;8.80;87.70;;;;;;5014421;28;88596;-58
2024/02/08 15:15:18;;;;;;;;;;;8.80;87.60;;;;;;5017441;28;87012;-60
2024/02/08 15:17:48;;;;;;;;;;;8.80;87.20;;;;;;5015248;28;89350;-60
2024/02/08 15:23:10;;;;;;;;;;;8.80;87.30;;;;;;5020000;28;86266;-59
2024/02/08 15:25:43;;;;;;;;;;;8.80;87.40;;;;;;5018867;28;87481;-60
2024/02/08 15:28:31;;;;;;;;;;;8.80;87.30;;;;;;5016958;28;87080;-60
2024/02/08 15:31:11;;;;;;;;;;;8.90;87.30;;;;;;5018481;28;87939;-59
2024/02/08 15:36:47;;;;;;;;;;;9.00;87.50;;;;;;5020156;28;88880;-60
2024/02/08 15:39:26;;;;;;;;;;;9.00;87.40;;;;;;5014635;28;88056;-58
2024/02/08 15:41:55;;;;;;;;;;;9.00;87.60;;;;;;5014438;28;87804;-60
2024/02/08 15:44:33;;;;;;;;;;;9.00;87.20;;;;;;5017558;28;87089;-59
2024/02/08 15:47:11;;;;;;;;;;;9.00;87.10;;;;;;5021188;28;88022;-59
2024/02/08 15:49:37;;;;;;;;;;;9.00;87.30;;;;;;5016609;28;86130;-60
2024/02/08 15:52:04;;;;;;;;;;;9.10;87.40;;;;;;5020396;28;86844;-59
2024/02/08 15:54:38;;;;;;;;;;;9.00;87.40;;;;;;5016210;28;86865;-60
2024/02/08 15:57:09;;;;;;;;;;;9.00;87.30;;;;;;5016590;28;88186;-59
2024/02/08 15:59:35;;;;;;;;;;;9.00;87.30;;;;;;5018149;28;89131;-59
2024/02/08 16:02:04;;;;;;;;;;;9.10;87.20;;;;;;5014960;28;87431;-60
2024/02/08 16:04:49;;;;;;;;;;;9.00;87.10;;;;;;5017231;28;87032;-59
2024/02/08 16:07:15;;;;;;;;;;;9.00;87.10;;;;;;5016959;28;87943;-59
2024/02/08 16:09:45;;;;;;;;;;;9.00;87.10;;;;;;5017647;28;87265;-60
2024/02/08 16:12:13;;;;;;;;;;;9.10;87.20;;;;;;5017609;28;87720;-59
2024/02/08 16:14:50;;;;;;;;;;;9.10;87.20;;;;;;5015844;28;87699;-59
2024/02/08 16:17:36;;;;;;;;;;;9.10;87.20;;;;;;5015914;28;86976;-60
2024/02/08 16:20:08;;;;;;;;;;;9.10;87.10;;;;;;5016713;28;87913;-59
2024/02/08 16:22:47;;;;;;;;;;;9.10;87.20;;;;;;5015214;28;89693;-58
2024/02/08 16:25:38;;;;;;;;;;;9.10;87.70;;;;;;5012285;28;86883;-59
2024/02/08 16:28:17;;;;;;;;;;;9.10;87.20;;;;;;5017043;28;87110;-58
2024/02/08 16:31:00;;;;;;;;;;;9.10;87.30;;;;;;5017403;28;87714;-59
2024/02/08 16:33:47;;;;;;;;;;;9.10;87.30;;;;;;5018293;28;86893;-59
2024/02/08 16:39:21;;;;;;;;;;;9.10;87.40;;;;;;5009468;28;87083;-59
2024/02/08 16:41:59;;;;;;;;;;;9.10;87.40;;;;;;5016766;28;87963;-59
2024/02/08 16:47:27;;;;;;;;;;;9.10;87.50;;;;;;5011329;28;87685;-60
2024/02/08 16:49:58;;;;;;;;;;;9.20;87.40;;;;;;5018611;28;88060;-59
2024/02/08 16:52:28;;;;;;;;;;;9.20;87.30;;;;;;5010225;28;88602;-60
2024/02/08 16:55:00;;;;;;;;;;;9.20;87.20;;;;;;5016527;28;87188;-60
2024/02/08 16:57:31;;;;;;;;;;;9.20;87.20;;;;;;5019341;28;87631;-59
2024/02/08 17:00:28;;;;;;;;;;;9.20;87.10;;;;;;5017853;28;87021;-60
2024/02/08 17:03:00;;;;;;;;;;;9.20;86.90;;;;;;5010653;28;86801;-60
2024/02/08 17:05:38;;;;;;;;;;;9.20;86.80;;;;;;5017530;28;88552;-60
2024/02/08 17:08:07;;;;;;;;;;;9.20;86.70;;;;;;5011866;28;86591;-60
2024/02/08 17:10:47;;;;;;;;;;;9.30;86.60;;;;;;5016585;28;87162;-60
2024/02/08 17:13:16;;;;;;;;;;;9.30;86.60;;;;;;5015815;28;88038;-60
2024/02/08 17:18:33;;;;;;;;;;;9.30;86.50;;;;;;5018187;28;87427;-59